Time;durP1;ratioP1;P1;durP2;ratioP2;P2;SDS_P1;SDS_P2;PMS_P1;PMS_P2;Temp;Humidity;BMP_temperature;BMP_pressure;BME280_temperature;BME280_humidity;BME280_pressure;Samples;Min_cycle;Max_cycle;Signal;HPM_P1;HPM_P2
2021/05/19 00:01:46;;;;;;;1.80;1.70;;;;;;;10.13;100.00;96176.56;4947007;28;20536;-63
2021/05/19 00:04:15;;;;;;;2.30;2.00;;;;;;;10.13;100.00;96178.38;4945056;28;20067;-61
2021/05/19 00:06:43;;;;;;;2.20;2.00;;;;;;;10.01;100.00;96177.75;4948526;28;20604;-63
2021/05/19 00:09:13;;;;;;;3.92;1.75;;;;;;;10.08;100.00;96178.00;4945199;28;20550;-64
2021/05/19 00:11:45;;;;;;;2.10;2.00;;;;;;;10.07;100.00;96174.53;4946402;28;20063;-63
2021/05/19 00:14:15;;;;;;;4.25;2.15;;;;;;;10.08;100.00;96175.34;4946656;28;20079;-63
2021/05/19 00:16:46;;;;;;;1.80;1.70;;;;;;;10.08;100.00;96167.44;4941303;28;20367;-63
2021/05/19 00:19:14;;;;;;;1.90;1.70;;;;;;;10.11;100.00;96165.34;4930145;28;20538;-64
2021/05/19 00:21:43;;;;;;;4.18;2.17;;;;;;;10.11;100.00;96175.06;4938431;28;20544;-62
2021/05/19 00:24:11;;;;;;;3.55;1.90;;;;;;;10.13;100.00;96167.84;4943094;28;20055;-62
2021/05/19 00:26:39;;;;;;;1.90;1.80;;;;;;;10.14;100.00;96172.94;4948388;28;20078;-62
2021/05/19 00:29:11;;;;;;;2.00;1.90;;;;;;;9.98;100.00;96175.44;4948046;28;20082;-64
2021/05/19 00:31:41;;;;;;;2.42;2.10;;;;;;;10.10;100.00;96174.22;4948552;28;20737;-62
2021/05/19 00:34:10;;;;;;;3.90;2.00;;;;;;;9.94;100.00;96179.31;4941680;28;20081;-64
2021/05/19 00:36:40;;;;;;;3.00;1.88;;;;;;;10.03;100.00;96181.06;4946607;28;20168;-62
2021/05/19 00:39:09;;;;;;;2.10;1.90;;;;;;;10.01;100.00;96172.47;4945374;28;20066;-61
2021/05/19 00:41:39;;;;;;;2.08;1.90;;;;;;;10.02;100.00;96183.88;4948265;28;20089;-64
2021/05/19 00:44:09;;;;;;;2.35;1.75;;;;;;;9.89;100.00;96178.94;4949630;28;20082;-64
2021/05/19 00:46:37;;;;;;;2.27;2.07;;;;;;;9.96;100.00;96185.28;4945745;28;20362;-64
2021/05/19 00:49:05;;;;;;;6.45;2.10;;;;;;;9.96;100.00;96190.53;4934479;28;20483;-64
2021/05/19 00:51:34;;;;;;;2.08;1.88;;;;;;;10.03;100.00;96196.88;4936754;28;20074;-64
2021/05/19 00:54:02;;;;;;;2.00;1.80;;;;;;;10.11;100.00;96190.88;4947476;28;20073;-62
2021/05/19 00:56:30;;;;;;;2.05;1.85;;;;;;;9.98;100.00;96194.69;4943072;28;20079;-62
2021/05/19 00:59:00;;;;;;;2.45;2.10;;;;;;;9.97;100.00;96195.66;4932070;29;20083;-63
2021/05/19 01:01:34;;;;;;;2.58;2.38;;;;;;;9.92;100.00;96191.81;4926749;28;20568;-61
2021/05/19 01:04:03;;;;;;;2.45;2.00;;;;;;;9.79;100.00;96189.53;4942367;28;20070;-60
2021/05/19 01:06:37;;;;;;;1.95;1.85;;;;;;;9.76;100.00;96187.19;4945582;28;20445;-61
2021/05/19 01:11:52;;;;;;;3.42;1.98;;;;;;;9.73;100.00;96193.56;4945866;28;20067;-63
2021/05/19 01:14:20;;;;;;;1.95;1.75;;;;;;;9.76;100.00;96195.09;4944040;28;20075;-63
2021/05/19 01:16:48;;;;;;;2.63;1.90;;;;;;;9.63;100.00;96190.13;4946922;28;20086;-60
2021/05/19 01:19:19;;;;;;;2.08;1.98;;;;;;;9.80;100.00;96192.97;4951158;28;20059;-60
2021/05/19 01:21:48;;;;;;;;;;;;;;;9.77;100.00;96199.38;4947692;28;20075;-62
2021/05/19 01:24:17;;;;;;;2.20;2.00;;;;;;;9.62;100.00;96199.03;4951288;28;20419;-64
2021/05/19 01:26:45;;;;;;;2.30;2.10;;;;;;;9.77;100.00;96202.00;4946442;28;20071;-62
2021/05/19 01:29:14;;;;;;;2.97;2.00;;;;;;;9.80;100.00;96200.88;4954396;28;20083;-63
2021/05/19 01:31:46;;;;;;;2.00;1.80;;;;;;;9.62;100.00;96193.75;4947896;28;20094;-62
2021/05/19 01:34:14;;;;;;;2.33;2.17;;;;;;;9.65;100.00;96197.91;4950402;28;20466;-58
2021/05/19 01:36:42;;;;;;;3.58;2.22;;;;;;;9.80;100.00;96200.88;4947453;28;20078;-62
2021/05/19 01:39:10;;;;;;;3.67;2.35;;;;;;;9.78;100.00;96193.16;4950611;28;20094;-64
2021/05/19 01:41:39;;;;;;;2.65;2.42;;;;;;;9.65;100.00;96196.09;4950451;28;20467;-63
2021/05/19 01:44:12;;;;;;;2.55;2.10;;;;;;;9.63;100.00;96194.59;4951193;28;20079;-63
2021/05/19 01:46:40;;;;;;;2.80;2.40;;;;;;;9.63;100.00;96189.31;4945982;28;20078;-63
2021/05/19 01:49:08;;;;;;;2.60;2.30;;;;;;;9.63;100.00;96194.59;4945874;28;20075;-63
2021/05/19 01:51:37;;;;;;;2.97;2.10;;;;;;;9.52;100.00;96198.22;4949841;28;20081;-62
2021/05/19 01:54:07;;;;;;;2.10;2.00;;;;;;;9.54;100.00;96193.66;4940440;28;24164;-62
2021/05/19 01:56:35;;;;;;;2.95;2.10;;;;;;;9.52;100.00;96192.97;4934030;28;20087;-60
2021/05/19 01:59:05;;;;;;;4.60;2.33;;;;;;;9.48;100.00;96205.59;4949540;28;20082;-59
2021/05/19 02:01:34;;;;;;;2.28;2.05;;;;;;;9.56;100.00;96204.03;4949057;28;20051;-65
2021/05/19 02:04:07;;;;;;;2.30;2.10;;;;;;;9.51;100.00;96202.66;4947781;28;20102;-62
2021/05/19 02:06:45;;;;;;;2.25;2.00;;;;;;;9.51;100.00;96204.47;4948893;28;20446;-63
2021/05/19 02:09:15;;;;;;;3.40;2.17;;;;;;;9.55;100.00;96197.13;4943656;28;20449;-66
2021/05/19 02:11:44;;;;;;;2.40;2.20;;;;;;;9.47;100.00;96209.19;4948229;28;20079;-62
2021/05/19 02:14:13;;;;;;;2.90;2.00;;;;;;;9.55;100.00;96213.75;4947605;28;20148;-63
2021/05/19 02:16:41;;;;;;;2.42;2.10;;;;;;;9.52;100.00;96203.50;4951118;28;20086;-57
2021/05/19 02:19:11;;;;;;;2.50;2.00;;;;;;;9.54;100.00;96206.00;4946991;28;20066;-63
2021/05/19 02:21:40;;;;;;;2.25;2.05;;;;;;;9.54;100.00;96201.56;4949695;28;20067;-62
2021/05/19 02:24:09;;;;;;;2.30;2.10;;;;;;;9.40;100.00;96204.66;4947781;28;20163;-62
2021/05/19 02:26:38;;;;;;;2.38;2.17;;;;;;;9.47;100.00;96211.84;4950288;28;20079;-62
2021/05/19 02:29:06;;;;;;;2.35;2.10;;;;;;;9.47;100.00;96206.56;4946968;28;20497;-64
2021/05/19 02:31:36;;;;;;;2.38;2.17;;;;;;;9.44;100.00;96211.28;4945200;28;20066;-62
2021/05/19 02:34:04;;;;;;;2.78;2.30;;;;;;;9.25;100.00;96202.47;4946296;28;20623;-64
2021/05/19 02:36:32;;;;;;;2.45;2.20;;;;;;;9.28;100.00;96212.72;4946920;28;20062;-65
2021/05/19 02:39:00;;;;;;;2.85;2.42;;;;;;;9.26;100.00;96214.66;4945353;28;20064;-66
2021/05/19 02:41:28;;;;;;;2.45;2.00;;;;;;;9.26;100.00;96213.84;4946926;28;20078;-64
2021/05/19 02:43:56;;;;;;;2.20;2.10;;;;;;;9.35;100.00;96214.78;4951169;29;20079;-65
2021/05/19 02:46:24;;;;;;;2.10;1.90;;;;;;;9.29;100.00;96218.81;4946333;28;20148;-61
2021/05/19 02:49:01;;;;;;;2.63;2.28;;;;;;;9.27;100.00;96213.69;4948003;28;20485;-63
2021/05/19 02:51:30;;;;;;;2.90;2.05;;;;;;;9.32;100.00;96218.50;4947463;28;20059;-64
2021/05/19 02:53:59;;;;;;;2.10;2.00;;;;;;;9.35;100.00;96214.78;4948999;28;20708;-63
2021/05/19 02:56:27;;;;;;;2.40;2.20;;;;;;;9.43;100.00;96217.53;4944170;28;20093;-64
2021/05/19 02:58:55;;;;;;;3.33;2.13;;;;;;;9.36;100.00;96213.78;4950284;28;20534;-64
2021/05/19 03:01:24;;;;;;;2.30;2.10;;;;;;;9.34;100.00;96216.56;4947843;28;20447;-64
2021/05/19 03:03:52;;;;;;;2.50;2.30;;;;;;;9.44;100.00;96212.13;4946214;28;20417;-61
2021/05/19 03:06:22;;;;;;;5.40;2.65;;;;;;;9.36;100.00;96217.28;4944757;28;20126;-59
2021/05/19 03:08:50;;;;;;;2.55;2.33;;;;;;;9.27;100.00;96213.69;4949684;28;20079;-61
2021/05/19 03:11:18;;;;;;;2.65;2.45;;;;;;;9.34;100.00;96216.56;4945740;28;20070;-59
2021/05/19 03:13:47;;;;;;;3.30;2.10;;;;;;;9.34;100.00;96213.94;4950259;28;20075;-63
2021/05/19 03:16:15;;;;;;;2.65;2.42;;;;;;;9.19;100.00;96220.66;4944206;28;20062;-61
2021/05/19 03:18:43;;;;;;;2.40;2.20;;;;;;;9.37;100.00;96218.09;4942346;28;20465;-63
2021/05/19 03:21:11;;;;;;;2.45;2.25;;;;;;;9.27;100.00;96223.38;4933155;28;20070;-62
2021/05/19 03:23:40;;;;;;;3.25;2.33;;;;;;;9.25;100.00;96220.06;4944535;28;20079;-63
2021/05/19 03:26:09;;;;;;;2.78;2.47;;;;;;;9.33;100.00;96224.63;4944671;28;20083;-62
2021/05/19 03:28:37;;;;;;;4.25;2.38;;;;;;;9.32;100.00;96228.22;4945248;28;20071;-66
2021/05/19 03:31:06;;;;;;;3.63;2.72;;;;;;;9.43;100.00;96230.69;4929535;28;20134;-61
2021/05/19 03:33:35;;;;;;;2.80;2.60;;;;;;;9.41;100.00;96230.00;4933740;28;20075;-65
2021/05/19 03:36:05;;;;;;;2.60;2.40;;;;;;;9.50;100.00;96239.69;4945009;28;20082;-65
2021/05/19 03:38:34;;;;;;;3.13;2.80;;;;;;;9.38;100.00;96227.66;4944009;28;20467;-66
2021/05/19 03:41:04;;;;;;;3.72;2.90;;;;;;;9.38;100.00;96235.53;4945583;28;20105;-62
2021/05/19 03:43:32;;;;;;;3.42;3.13;;;;;;;9.50;100.00;96234.41;4942138;28;20494;-62
2021/05/19 03:46:00;;;;;;;3.20;2.90;;;;;;;9.55;100.00;96233.97;4946932;28;20066;-62
2021/05/19 03:48:28;;;;;;;2.92;2.63;;;;;;;9.46;100.00;96248.81;4941559;28;20062;-66
2021/05/19 03:50:57;;;;;;;5.63;2.90;;;;;;;9.50;100.00;96253.66;4945681;28;20071;-66
2021/05/19 03:53:25;;;;;;;3.60;3.10;;;;;;;9.49;100.00;96245.91;4940906;28;20082;-63
2021/05/19 03:55:53;;;;;;;3.95;3.20;;;;;;;9.62;100.00;96256.94;4947022;28;20039;-61
2021/05/19 03:58:22;;;;;;;3.30;3.00;;;;;;;9.56;100.00;96257.50;4941132;28;20059;-62
2021/05/19 04:00:50;;;;;;;5.68;3.10;;;;;;;9.48;100.00;96255.59;4944867;28;20066;-62
2021/05/19 04:03:18;;;;;;;4.20;3.80;;;;;;;9.36;100.00;96269.06;4944151;28;20094;-63
2021/05/19 04:05:46;;;;;;;5.00;3.47;;;;;;;9.44;100.00;96262.13;4945458;28;20066;-64
2021/05/19 04:08:14;;;;;;;3.65;3.22;;;;;;;9.36;100.00;96274.31;4941240;28;20086;-65
2021/05/19 04:10:43;;;;;;;4.93;3.72;;;;;;;9.22;100.00;96276.44;4944910;28;20077;-60
2021/05/19 04:13:11;;;;;;;4.97;4.00;;;;;;;9.22;100.00;96279.06;4930838;28;20072;-61
2021/05/19 04:15:41;;;;;;;4.28;3.45;;;;;;;9.23;100.00;96286.00;4929429;28;20059;-61
2021/05/19 04:18:10;;;;;;;3.70;3.33;;;;;;;9.19;100.00;96276.72;4933823;28;20063;-61
2021/05/19 04:20:38;;;;;;;4.88;3.90;;;;;;;9.09;100.00;96280.34;4945949;28;20078;-62
2021/05/19 04:23:07;;;;;;;4.22;3.72;;;;;;;9.04;100.00;96283.38;4946667;28;20091;-64
2021/05/19 04:25:36;;;;;;;6.30;3.90;;;;;;;9.09;100.00;96285.59;4945733;28;20075;-65
2021/05/19 04:28:04;;;;;;;4.63;3.72;;;;;;;9.07;100.00;96292.78;4936629;28;20071;-62
2021/05/19 04:30:33;;;;;;;4.65;4.20;;;;;;;9.03;100.00;96297.50;4937615;28;20071;-68
2021/05/19 04:33:22;;;;;;;6.38;4.10;;;;;;;8.96;100.00;96293.75;4937566;28;20554;-63
2021/05/19 04:35:50;;;;;;;5.28;4.00;;;;;;;8.83;100.00;96298.47;4930580;28;20090;-65
2021/05/19 04:38:18;;;;;;;6.82;4.40;;;;;;;8.94;100.00;96304.41;4949451;28;20479;-64
2021/05/19 04:40:46;;;;;;;5.72;4.03;;;;;;;8.94;100.00;96312.28;4941967;29;21499;-63
2021/05/19 04:43:15;;;;;;;4.95;4.07;;;;;;;8.94;100.00;96307.03;4944132;28;20063;-60
2021/05/19 04:45:44;;;;;;;5.95;4.55;;;;;;;9.00;100.00;96305.66;4944119;28;20078;-63
2021/05/19 04:48:12;;;;;;;5.93;4.20;;;;;;;9.10;100.00;96309.13;4946129;28;20067;-64
2021/05/19 04:50:42;;;;;;;5.78;4.28;;;;;;;9.07;100.00;96304.13;4940384;28;20561;-62
2021/05/19 04:53:11;;;;;;;4.93;4.43;;;;;;;9.11;100.00;96308.13;4930305;29;20071;-62
2021/05/19 04:55:39;;;;;;;4.53;4.07;;;;;;;9.12;100.00;96309.81;4944079;28;20473;-61
2021/05/19 04:58:08;;;;;;;4.80;3.90;;;;;;;9.03;100.00;96308.84;4941013;28;20074;-63
2021/05/19 05:00:37;;;;;;;5.22;4.40;;;;;;;9.32;100.00;96307.16;4936174;28;20469;-62
2021/05/19 05:03:06;;;;;;;5.38;4.13;;;;;;;9.27;100.00;96303.16;4931867;28;20070;-64
2021/05/19 05:05:35;;;;;;;7.85;4.45;;;;;;;9.35;100.00;96305.06;4928233;28;20530;-62
2021/05/19 05:08:05;;;;;;;6.60;4.30;;;;;;;9.36;100.00;96306.75;4949494;28;20105;-63
2021/05/19 05:10:33;;;;;;;4.75;3.95;;;;;;;9.18;100.00;96314.50;4942182;28;20070;-64
2021/05/19 05:13:01;;;;;;;4.15;3.33;;;;;;;9.17;100.00;96312.84;4934096;28;20083;-64
2021/05/19 05:15:30;;;;;;;5.13;3.55;;;;;;;9.18;100.00;96311.88;4934189;28;20070;-64
2021/05/19 05:17:58;;;;;;;5.53;3.97;;;;;;;9.27;100.00;96324.19;4946233;28;20089;-63
2021/05/19 05:20:26;;;;;;;4.93;3.42;;;;;;;9.30;100.00;96317.00;4941732;28;20087;-62
2021/05/19 05:22:54;;;;;;;4.45;3.30;;;;;;;9.19;100.00;96320.63;4949205;28;20079;-63
2021/05/19 05:25:24;;;;;;;4.55;3.55;;;;;;;9.17;100.00;96320.75;4943061;28;20071;-65
2021/05/19 05:27:54;;;;;;;4.25;3.53;;;;;;;9.21;100.00;96327.38;4944531;28;20074;-63
2021/05/19 05:30:23;;;;;;;3.90;3.60;;;;;;;9.19;100.00;96334.59;4942315;28;20085;-61
2021/05/19 05:32:51;;;;;;;4.30;3.85;;;;;;;9.32;100.00;96328.22;4942956;28;20372;-58
2021/05/19 05:35:20;;;;;;;5.78;4.53;;;;;;;9.36;100.00;96330.44;4944367;28;20075;-63
2021/05/19 05:37:48;;;;;;;5.90;4.65;;;;;;;9.26;100.00;96334.88;4943277;28;20097;-63
2021/05/19 05:40:16;;;;;;;5.38;4.88;;;;;;;9.32;100.00;96336.09;4938881;28;20155;-64
2021/05/19 05:42:45;;;;;;;5.50;4.97;;;;;;;9.43;100.00;96336.81;4937154;28;20063;-65
2021/05/19 05:45:15;;;;;;;8.30;5.20;;;;;;;9.56;100.00;96328.59;4947027;28;20074;-64
2021/05/19 05:47:47;;;;;;;6.82;5.15;;;;;;;10.01;100.00;96332.34;4942175;28;20070;-64
2021/05/19 05:50:16;;;;;;;7.35;5.32;;;;;;;9.79;100.00;96323.00;4946182;28;20055;-63
2021/05/19 05:52:44;;;;;;;7.18;5.80;;;;;;;10.11;100.00;96327.88;4942633;28;20090;-63
2021/05/19 05:55:13;;;;;;;7.38;5.47;;;;;;;10.17;100.00;96330.75;4946691;28;20063;-66
2021/05/19 05:57:41;;;;;;;5.85;5.25;;;;;;;10.31;100.00;96329.47;4933316;28;20074;-64
2021/05/19 06:00:12;;;;;;;7.28;6.25;;;;;;;10.32;100.00;96330.31;4934256;28;20530;-60
2021/05/19 06:02:41;;;;;;;7.70;5.90;;;;;;;10.38;100.00;96327.91;4944499;28;20070;-62
2021/05/19 06:05:10;;;;;;;7.22;6.28;;;;;;;10.48;100.00;96327.88;4949433;28;20083;-64
2021/05/19 06:07:38;;;;;;;7.53;6.15;;;;;;;10.48;100.00;96330.50;4932816;28;20071;-63
2021/05/19 06:10:08;;;;;;;6.43;5.78;;;;;;;10.62;100.00;96321.28;4944388;28;20080;-63
2021/05/19 06:12:36;;;;;;;6.13;5.27;;;;;;;10.75;100.00;96327.03;4947801;28;20082;-64
2021/05/19 06:15:06;;;;;;;6.57;5.90;;;;;;;10.39;100.00;96318.19;4941086;28;20090;-63
2021/05/19 06:17:35;;;;;;;6.88;5.88;;;;;;;10.58;100.00;96317.28;4931204;28;20091;-64
2021/05/19 06:20:04;;;;;;;6.80;6.10;;;;;;;10.96;100.00;96325.91;4951363;28;20074;-63
2021/05/19 06:22:33;;;;;;;7.60;5.82;;;;;;;10.79;100.00;96333.66;4947219;28;20074;-65
2021/05/19 06:25:02;;;;;;;6.80;5.57;;;;;;;11.14;100.00;96326.72;4948189;28;20099;-61
2021/05/19 06:27:30;;;;;;;8.10;6.40;;;;;;;11.48;100.00;96326.03;4948676;28;20070;-63
2021/05/19 06:29:58;;;;;;;6.07;5.47;;;;;;;11.45;100.00;96324.50;4947987;28;20067;-63
2021/05/19 06:32:26;;;;;;;7.85;5.65;;;;;;;11.82;100.00;96324.28;4948108;28;20067;-64
2021/05/19 06:34:56;;;;;;;6.68;5.53;;;;;;;11.95;100.00;96318.63;4947936;28;20086;-63
2021/05/19 06:37:24;;;;;;;6.67;4.80;;;;;;;12.04;100.00;96322.13;4950048;28;20081;-61
2021/05/19 06:39:54;;;;;;;5.68;5.05;;;;;;;11.69;100.00;96321.22;4946756;28;20486;-63
2021/05/19 06:42:22;;;;;;;5.68;5.07;;;;;;;12.06;100.00;96314.88;4949396;28;20530;-59
2021/05/19 06:44:50;;;;;;;6.15;5.03;;;;;;;11.77;100.00;96325.75;4945282;28;20062;-61
2021/05/19 06:47:18;;;;;;;5.55;4.88;;;;;;;11.60;100.00;96320.34;4948919;28;20485;-59
2021/05/19 06:49:47;;;;;;;6.40;5.20;;;;;;;11.34;100.00;96322.94;4946307;28;20493;-63
2021/05/19 06:52:16;;;;;;;5.55;4.95;;;;;;;11.54;100.00;96314.84;4947509;28;20071;-62
2021/05/19 06:54:45;;;;;;;6.45;5.75;;;;;;;11.85;100.00;96323.19;4941647;28;20074;-61
2021/05/19 06:57:13;;;;;;;6.32;5.70;;;;;;;11.87;100.00;96326.47;4946341;28;20454;-61
2021/05/19 06:59:41;;;;;;;6.88;6.07;;;;;;;12.03;100.00;96318.66;4943964;28;20074;-63
2021/05/19 07:02:09;;;;;;;6.63;5.80;;;;;;;12.01;100.00;96318.00;4952064;28;20082;-60
2021/05/19 07:04:38;;;;;;;8.15;5.32;;;;;;;12.08;100.00;96326.13;4945680;28;20522;-62
2021/05/19 07:07:06;;;;;;;7.55;6.00;;;;;;;12.04;100.00;96328.25;4948361;28;20071;-64
2021/05/19 07:09:36;;;;;;;7.00;5.00;;;;;;;11.73;100.00;96333.13;4946606;28;20059;-60
2021/05/19 07:12:05;;;;;;;7.13;5.80;;;;;;;12.29;100.00;96331.03;4942649;28;20071;-61
2021/05/19 07:14:37;;;;;;;6.32;5.50;;;;;;;12.06;100.00;96325.44;4933808;28;20486;-63
2021/05/19 07:17:05;;;;;;;6.57;5.28;;;;;;;12.52;100.00;96326.78;4948814;28;20059;-61
2021/05/19 07:19:33;;;;;;;7.07;5.60;;;;;;;12.89;100.00;96328.25;4948587;28;20069;-62
2021/05/19 07:22:02;;;;;;;6.63;5.70;;;;;;;12.81;100.00;96331.69;4945591;28;20063;-61
2021/05/19 07:24:31;;;;;;;6.15;5.32;;;;;;;12.35;100.00;96333.88;4946676;28;20075;-61
2021/05/19 07:27:00;;;;;;;5.68;5.18;;;;;;;12.20;100.00;96330.16;4944644;28;20075;-63
2021/05/19 07:29:28;;;;;;;9.65;5.43;;;;;;;12.30;100.00;96335.31;4948805;28;20085;-63
2021/05/19 07:31:58;;;;;;;6.75;5.90;;;;;;;12.69;100.00;96325.03;4946364;28;20076;-61
2021/05/19 07:34:27;;;;;;;7.73;6.03;;;;;;;12.80;100.00;96332.69;4945944;28;20062;-61
2021/05/19 07:36:55;;;;;;;9.80;6.57;;;;;;;13.58;100.00;96330.66;4944451;28;20075;-60
2021/05/19 07:39:23;;;;;;;5.28;4.78;;;;;;;13.05;100.00;96324.81;4944088;28;20067;-61
2021/05/19 07:41:58;;;;;;;6.07;5.47;;;;;;;12.86;100.00;96336.50;4944619;28;20070;-62
2021/05/19 07:44:27;;;;;;;6.57;5.93;;;;;;;12.56;100.00;96332.63;4950013;28;20109;-62
2021/05/19 07:46:54;;;;;;;7.65;6.55;;;;;;;12.96;100.00;96337.19;4948980;29;20469;-61
2021/05/19 07:49:20;;;;;;;7.60;6.80;;;;;;;12.68;100.00;96330.50;4947855;28;20070;-62
2021/05/19 07:51:47;;;;;;;7.50;6.65;;;;;;;12.99;100.00;96328.09;4943594;28;20073;-62
2021/05/19 07:54:23;;;;;;;7.35;6.55;;;;;;;13.32;100.00;96329.00;4948316;28;20082;-63
2021/05/19 07:56:54;;;;;;;8.20;7.40;;;;;;;13.81;100.00;96333.44;4944545;28;20477;-61
2021/05/19 07:59:23;;;;;;;9.05;8.00;;;;;;;13.88;100.00;96331.78;4943596;28;20164;-65
2021/05/19 08:02:04;;;;;;;7.55;6.78;;;;;;;13.88;100.00;96329.97;4946688;29;20541;-64
2021/05/19 08:04:34;;;;;;;9.52;6.28;;;;;;;13.47;100.00;96332.63;4945838;28;20082;-65
2021/05/19 08:07:02;;;;;;;;;;;;;;;13.12;100.00;96332.94;4946510;28;20587;-62
2021/05/19 08:09:29;;;;;;;7.72;6.40;;;;;;;13.26;100.00;96321.72;4947454;28;20329;-63
2021/05/19 08:11:56;;;;;;;8.77;7.38;;;;;;;13.61;100.00;96327.66;4943733;28;20063;-64
2021/05/19 08:14:26;;;;;;;9.52;8.25;;;;;;;14.20;100.00;96323.75;4946098;28;20077;-62
2021/05/19 08:16:54;;;;;;;8.32;6.97;;;;;;;13.84;100.00;96322.53;4949239;28;20074;-61
2021/05/19 08:19:21;;;;;;;9.93;7.82;;;;;;;14.10;100.00;96314.31;4946429;28;20062;-61
2021/05/19 08:21:49;;;;;;;8.15;7.35;;;;;;;14.08;100.00;96316.34;4943770;28;20640;-62
2021/05/19 08:24:17;;;;;;;9.48;6.78;;;;;;;13.98;100.00;96317.34;4944754;28;20316;-63
2021/05/19 08:26:45;;;;;;;6.72;5.90;;;;;;;14.18;100.00;96319.63;4947034;28;20550;-61
2021/05/19 08:29:13;;;;;;;12.32;7.55;;;;;;;14.56;100.00;96312.72;4946102;29;20537;-61
2021/05/19 08:31:41;;;;;;;6.47;5.43;;;;;;;14.50;100.00;96318.69;4944829;28;20067;-62
2021/05/19 08:34:13;;;;;;;8.80;7.90;;;;;;;14.22;100.00;96324.41;4939244;28;20419;-62
2021/05/19 08:36:41;;;;;;;7.30;6.05;;;;;;;13.79;100.00;96333.59;4945367;28;20073;-62
2021/05/19 08:39:10;;;;;;;7.40;6.47;;;;;;;13.88;100.00;96329.97;4943969;28;20035;-60
2021/05/19 08:41:39;;;;;;;8.25;7.45;;;;;;;13.66;100.00;96328.84;4948489;28;20513;-60
2021/05/19 08:44:08;;;;;;;9.32;7.63;;;;;;;13.40;100.00;96330.81;4947139;28;20078;-62
2021/05/19 08:46:43;;;;;;;7.40;5.80;;;;;;;13.26;100.00;96324.34;4944721;28;20063;-66
2021/05/19 08:49:13;;;;;;;7.53;6.47;;;;;;;13.70;100.00;96327.50;4940044;28;20074;-59
2021/05/19 08:51:43;;;;;;;5.87;4.70;;;;;;;13.72;100.00;96316.72;4947989;28;20074;-64
2021/05/19 08:54:12;;;;;;;7.45;6.65;;;;;;;14.56;100.00;96319.84;4943363;28;20890;-61
2021/05/19 08:56:41;;;;;;;6.88;6.18;;;;;;;14.06;100.00;96327.09;4948065;28;20043;-62
2021/05/19 08:59:09;;;;;;;6.47;5.30;;;;;;;14.78;100.00;96319.06;4944967;28;20087;-61
2021/05/19 09:01:40;;;;;;;6.43;5.65;;;;;;;14.93;100.00;96319.97;4934475;28;20075;-61
2021/05/19 09:04:11;;;;;;;7.43;5.70;;;;;;;14.78;100.00;96331.50;4940972;28;20087;-64
2021/05/19 09:06:40;;;;;;;5.80;5.20;;;;;;;14.88;100.00;96324.16;4946520;28;20704;-60
2021/05/19 09:09:25;;;;;;;6.40;5.70;;;;;;;15.14;100.00;96321.16;4942589;28;20074;-61
2021/05/19 09:11:59;;;;;;;6.60;5.90;;;;;;;14.73;100.00;96316.13;4945866;28;20521;-62
2021/05/19 09:14:30;;;;;;;6.75;5.28;;;;;;;14.34;100.00;96326.69;4940122;28;20091;-61
2021/05/19 09:17:18;;;;;;;5.93;5.32;;;;;;;14.77;100.00;96322.72;4952234;29;20063;-62
2021/05/19 09:19:47;;;;;;;6.30;5.05;;;;;;;14.86;100.00;96326.97;4948560;29;20200;-62
2021/05/19 09:22:22;;;;;;;4.82;3.95;;;;;;;14.70;100.00;96319.13;4950625;28;20039;-61
2021/05/19 09:24:50;;;;;;;7.72;6.03;;;;;;;15.62;100.00;96317.31;4945186;28;20059;-61
2021/05/19 09:27:20;;;;;;;6.22;4.80;;;;;;;15.27;100.00;96326.72;4945903;28;20074;-61
2021/05/19 09:29:49;;;;;;;5.57;4.97;;;;;;;15.32;100.00;96327.03;4942423;28;20073;-61
2021/05/19 09:32:19;;;;;;;7.05;6.00;;;;;;;15.77;100.00;96327.19;4949875;28;20540;-61
2021/05/19 09:34:50;;;;;;;8.63;5.85;;;;;;;15.54;100.00;96325.34;4944908;28;20059;-62
2021/05/19 09:37:23;;;;;;;6.90;5.90;;;;;;;15.69;100.00;96329.91;4944820;28;20074;-62
2021/05/19 09:39:55;;;;;;;6.40;5.68;;;;;;;15.80;100.00;96324.19;4947836;28;20089;-62
2021/05/19 09:42:24;;;;;;;6.53;5.72;;;;;;;15.77;100.00;96320.03;4944277;28;20078;-64
2021/05/19 09:44:56;;;;;;;8.15;5.75;;;;;;;15.62;100.00;96324.44;4950323;28;20074;-61
2021/05/19 09:47:39;;;;;;;5.95;5.15;;;;;;;15.68;100.00;96325.59;4947905;28;20449;-62
2021/05/19 09:50:08;;;;;;;7.13;5.63;;;;;;;15.38;99.77;96317.50;4949897;28;20532;-61
2021/05/19 09:52:38;;;;;;;6.72;5.45;;;;;;;15.44;100.00;96319.44;4948967;28;20066;-61
2021/05/19 09:55:11;;;;;;;7.78;5.60;;;;;;;16.30;85.87;96317.31;4950420;28;20063;-63
2021/05/19 09:57:55;;;;;;;5.35;4.85;;;;;;;15.74;79.27;96317.72;4945334;28;20073;-62
2021/05/19 10:00:24;;;;;;;6.80;5.32;;;;;;;15.34;96.71;96327.66;4944764;28;20513;-62
2021/05/19 10:02:55;;;;;;;5.88;4.93;;;;;;;16.22;89.54;96296.97;4947590;28;20078;-61
2021/05/19 10:05:26;;;;;;;5.60;5.10;;;;;;;16.37;98.68;96313.72;4949564;28;20098;-63
2021/05/19 10:07:55;;;;;;;7.22;5.20;;;;;;;16.64;87.74;96310.59;4949251;28;20079;-61
2021/05/19 10:10:24;;;;;;;7.65;5.15;;;;;;;15.99;95.23;96314.84;4948980;28;20502;-62
2021/05/19 10:12:53;;;;;;;6.53;5.38;;;;;;;16.50;90.26;96306.94;4946080;28;20328;-62
2021/05/19 10:15:23;;;;;;;6.03;5.10;;;;;;;16.11;82.07;96302.75;4948192;28;20117;-64
2021/05/19 10:17:55;;;;;;;5.45;4.55;;;;;;;16.22;93.62;96304.13;4947037;28;20066;-61
2021/05/19 10:20:26;;;;;;;5.80;5.20;;;;;;;16.91;90.52;96301.13;4949341;28;20071;-62
2021/05/19 10:22:56;;;;;;;6.45;5.57;;;;;;;17.40;71.20;96295.88;4944949;28;20098;-62
2021/05/19 10:25:34;;;;;;;5.53;4.97;;;;;;;16.79;92.23;96298.09;4948463;28;20465;-63
2021/05/19 10:28:04;;;;;;;5.93;4.95;;;;;;;16.25;80.30;96306.41;4946780;28;20074;-62
2021/05/19 10:30:40;;;;;;;7.30;5.20;;;;;;;15.79;85.14;96314.53;4947383;28;20063;-63
2021/05/19 10:33:45;;;;;;;5.88;5.00;;;;;;;15.71;87.42;96311.94;4947016;28;20065;-63
2021/05/19 10:36:36;;;;;;;6.40;5.07;;;;;;;14.91;93.29;96314.00;4948290;28;20066;-62
2021/05/19 10:39:23;;;;;;;5.80;5.00;;;;;;;14.53;96.60;96314.88;4946701;28;20071;-63
2021/05/19 10:41:53;;;;;;;6.47;5.80;;;;;;;14.43;100.00;96307.91;4950570;28;20067;-63
2021/05/19 10:44:22;;;;;;;6.32;5.72;;;;;;;14.66;100.00;96307.19;4945709;28;20089;-62
2021/05/19 10:46:54;;;;;;;5.15;4.65;;;;;;;15.24;87.20;96305.00;4931080;29;20079;-64
2021/05/19 10:49:23;;;;;;;4.43;3.88;;;;;;;15.58;82.05;96304.53;4944767;28;20074;-63
2021/05/19 10:52:11;;;;;;;7.22;4.40;;;;;;;15.87;79.37;96299.34;4947754;28;20114;-64
2021/05/19 10:57:49;;;;;;;6.47;5.20;;;;;;;16.24;93.56;96294.97;4949354;28;20627;-63
2021/05/19 11:00:20;;;;;;;5.45;4.63;;;;;;;15.84;87.98;96310.31;4946591;28;20100;-64
2021/05/19 11:03:11;;;;;;;6.03;5.38;;;;;;;16.27;88.21;96291.91;4949436;28;20063;-63
2021/05/19 11:05:41;;;;;;;;;;;;;;;16.29;82.84;96292.56;4947062;28;21683;-61
2021/05/19 11:08:22;;;;;;;8.43;4.93;;;;;;;16.61;96.78;96287.81;4948704;29;19954;-63
2021/05/19 11:10:53;;;;;;;5.40;4.75;;;;;;;16.20;90.74;96280.34;4946188;28;20100;-61
2021/05/19 11:13:23;;;;;;;6.35;4.82;;;;;;;16.65;80.41;96281.13;4948136;28;20059;-64
2021/05/19 11:15:59;;;;;;;6.95;5.50;;;;;;;16.49;79.53;96273.38;4945662;28;20745;-60
2021/05/19 11:18:56;;;;;;;5.10;4.47;;;;;;;16.71;90.99;96275.06;4934403;28;20040;-61
2021/05/19 11:21:25;;;;;;;5.10;4.30;;;;;;;16.91;78.13;96271.81;4937736;28;20534;-63
2021/05/19 11:24:08;;;;;;;4.53;4.13;;;;;;;16.36;96.06;96264.19;4948964;28;20067;-55
2021/05/19 11:26:39;;;;;;;6.28;4.47;;;;;;;15.95;84.88;96271.81;4943491;28;20090;-62
2021/05/19 11:29:08;;;;;;;6.30;5.00;;;;;;;15.57;97.58;96274.50;4936706;29;20083;-61
2021/05/19 11:31:39;;;;;;;3.75;3.35;;;;;;;15.00;99.76;96274.94;4944950;28;20063;-62
2021/05/19 11:34:09;;;;;;;3.17;2.40;;;;;;;14.87;88.22;96267.56;4947103;28;20063;-62
2021/05/19 11:36:40;;;;;;;4.67;3.10;;;;;;;14.70;81.52;96276.66;4946396;28;20062;-65
2021/05/19 11:39:34;;;;;;;3.35;3.05;;;;;;;14.88;97.87;96276.38;4941543;28;20490;-62
2021/05/19 11:42:25;;;;;;;4.38;3.97;;;;;;;15.00;93.89;96274.94;4937508;28;20098;-62
2021/05/19 11:44:55;;;;;;;4.97;4.05;;;;;;;15.35;95.30;96272.72;4943847;28;20078;-64
2021/05/19 11:47:40;;;;;;;4.30;3.90;;;;;;;15.41;93.15;96277.28;4944126;28;20082;-62
2021/05/19 11:50:12;;;;;;;3.55;3.25;;;;;;;15.35;81.81;96268.22;4949133;28;20132;-62
2021/05/19 11:52:41;;;;;;;1.77;1.60;;;;;;;14.65;65.19;96255.91;4944148;28;20070;-66